Time;durP1;ratioP1;P1;durP2;ratioP2;P2;SDS_P1;SDS_P2;PMS_P1;PMS_P2;Temp;Humidity;BMP_temperature;BMP_pressure;BME280_temperature;BME280_humidity;BME280_pressure;Samples;Min_cycle;Max_cycle;Signal;HPM_P1;HPM_P2
2021/03/05 00:01:47;;;;;;;12.30;6.80;;;9.90;99.90;;;;;;5041969;28;20465;-82
2021/03/05 00:04:13;;;;;;;10.67;7.03;;;10.00;99.90;;;;;;5027898;28;20465;-82
2021/03/05 00:06:40;;;;;;;14.60;10.17;;;10.10;99.90;;;;;;5021481;28;20490;-82
2021/03/05 00:09:06;;;;;;;12.80;8.63;;;9.80;99.90;;;;;;5021228;28;20520;-82
2021/03/05 00:11:33;;;;;;;13.77;10.30;;;9.60;99.90;;;;;;5019182;28;20455;-81
2021/03/05 00:13:59;;;;;;;17.87;12.03;;;9.20;99.90;;;;;;5022944;28;20458;-81
2021/03/05 00:16:26;;;;;;;14.20;8.10;;;9.00;99.90;;;;;;5024124;28;20478;-82
2021/03/05 00:18:53;;;;;;;13.57;9.07;;;9.00;99.90;;;;;;5024623;28;20554;-81
2021/03/05 00:21:20;;;;;;;15.33;10.70;;;8.80;99.90;;;;;;5024166;28;20835;-82
2021/03/05 00:23:46;;;;;;;14.90;11.48;;;8.70;99.90;;;;;;5022895;28;20475;-82
2021/03/05 00:26:13;;;;;;;18.60;13.40;;;8.60;99.90;;;;;;5022538;28;20224;-82
2021/03/05 00:28:39;;;;;;;21.33;13.77;;;8.50;99.90;;;;;;5025069;28;20455;-82
2021/03/05 00:31:05;;;;;;;22.08;15.40;;;8.60;99.90;;;;;;5027330;28;20781;-83
2021/03/05 00:33:31;;;;;;;20.87;15.07;;;8.60;99.90;;;;;;5025664;28;20231;-82
2021/03/05 00:35:59;;;;;;;24.30;14.60;;;8.60;99.90;;;;;;5027633;28;20483;-82
2021/03/05 00:38:26;;;;;;;20.03;14.17;;;8.60;99.90;;;;;;5026048;28;20439;-82
2021/03/05 00:40:53;;;;;;;23.47;17.10;;;8.60;99.90;;;;;;5013404;28;20542;-82
2021/03/05 00:43:20;;;;;;;25.40;17.40;;;8.20;99.90;;;;;;5023617;28;20490;-82
2021/03/05 00:45:47;;;;;;;26.43;17.93;;;8.20;99.90;;;;;;5019354;28;20544;-83
2021/03/05 00:48:13;;;;;;;25.63;16.80;;;8.40;99.90;;;;;;5011234;28;20455;-83
2021/03/05 00:50:40;;;;;;;24.17;17.97;;;8.30;99.90;;;;;;5012625;28;20200;-82
2021/03/05 00:53:07;;;;;;;24.40;17.97;;;8.30;99.90;;;;;;5022470;28;20512;-83
2021/03/05 00:55:34;;;;;;;21.67;16.17;;;8.40;99.90;;;;;;5024890;28;20501;-83
2021/03/05 00:58:00;;;;;;;26.88;19.00;;;8.30;99.90;;;;;;5025317;28;20655;-82
2021/03/05 01:00:27;;;;;;;26.27;18.15;;;7.80;99.90;;;;;;5026051;28;20203;-82
2021/03/05 01:02:54;;;;;;;28.30;19.87;;;8.00;99.90;;;;;;5023364;28;20223;-83
2021/03/05 01:05:20;;;;;;;26.08;18.65;;;7.80;99.90;;;;;;5021124;28;20474;-83
2021/03/05 01:07:46;;;;;;;23.10;16.35;;;8.00;99.90;;;;;;5020440;28;20705;-83
2021/03/05 01:10:14;;;;;;;28.17;19.20;;;7.70;99.90;;;;;;5019093;28;20212;-83
2021/03/05 01:12:41;;;;;;;29.83;18.87;;;8.10;99.90;;;;;;5020637;28;20612;-83
2021/03/05 01:15:08;;;;;;;28.13;18.48;;;7.50;99.90;;;;;;5020359;28;20762;-83
2021/03/05 01:17:34;;;;;;;30.80;18.65;;;7.60;99.90;;;;;;5023707;28;20299;-82
2021/03/05 01:20:02;;;;;;;29.98;19.67;;;7.50;99.90;;;;;;5024266;28;20244;-82
2021/03/05 01:22:28;;;;;;;35.87;21.77;;;7.40;99.90;;;;;;5022951;28;20227;-82
2021/03/05 01:24:54;;;;;;;35.08;22.58;;;7.50;99.90;;;;;;5024545;28;20455;-82
2021/03/05 01:27:21;;;;;;;35.33;21.55;;;7.40;99.90;;;;;;5023688;28;20239;-82
2021/03/05 01:29:48;;;;;;;31.85;21.05;;;7.30;99.90;;;;;;5021306;28;20204;-82
2021/03/05 01:32:14;;;;;;;31.35;19.90;;;7.40;99.90;;;;;;5026039;28;20686;-82
2021/03/05 01:34:40;;;;;;;33.10;20.02;;;6.80;99.90;;;;;;5021549;28;20208;-82
2021/03/05 01:37:07;;;;;;;34.63;21.10;;;7.20;99.90;;;;;;5024502;28;20267;-81
2021/03/05 01:39:33;;;;;;;33.40;20.42;;;7.10;99.90;;;;;;5014501;28;20223;-82
2021/03/05 01:42:00;;;;;;;33.78;21.05;;;7.30;99.90;;;;;;5028220;28;20223;-82
2021/03/05 01:44:27;;;;;;;35.30;21.65;;;7.00;99.90;;;;;;5036132;28;20274;-83
2021/03/05 01:46:53;;;;;;;31.83;18.83;;;6.90;99.90;;;;;;5030776;28;20252;-82
2021/03/05 01:49:20;;;;;;;32.20;21.10;;;7.10;99.90;;;;;;5009957;28;20267;-82
2021/03/05 01:51:46;;;;;;;34.95;21.38;;;7.20;99.90;;;;;;5025151;28;20242;-82
2021/03/05 01:54:13;;;;;;;35.20;19.60;;;6.80;99.90;;;;;;5027502;28;20204;-82
2021/03/05 01:56:41;;;;;;;41.58;20.42;;;7.00;99.90;;;;;;5018313;28;20278;-82
2021/03/05 01:59:10;;;;;;;32.33;19.98;;;7.00;99.90;;;;;;5007451;28;20715;-82
2021/03/05 02:01:38;;;;;;;34.05;19.70;;;7.00;99.90;;;;;;5022109;28;20211;-83
2021/03/05 02:04:08;;;;;;;35.22;21.05;;;6.70;99.90;;;;;;5026287;28;20239;-82
2021/03/05 02:06:35;;;;;;;33.63;22.70;;;6.70;99.90;;;;;;5026934;28;20223;-82
2021/03/05 02:09:03;;;;;;;39.10;21.27;;;6.60;99.90;;;;;;5013825;28;20219;-82
2021/03/05 02:11:29;;;;;;;24.98;14.30;;;6.70;99.90;;;;;;5027016;28;20204;-83
2021/03/05 02:13:57;;;;;;;35.92;21.52;;;6.50;99.90;;;;;;5017048;28;20211;-83
2021/03/05 02:16:31;;;;;;;41.28;23.58;;;6.70;99.90;;;;;;5017736;28;20247;-83
2021/03/05 02:19:07;;;;;;;36.22;21.52;;;6.60;99.90;;;;;;5023949;28;20214;-83
2021/03/05 02:21:51;;;;;;;37.60;21.58;;;6.30;99.90;;;;;;5018194;28;20246;-83
2021/03/05 02:24:48;;;;;;;35.47;21.42;;;6.60;99.90;;;;;;5004528;28;20221;-83
2021/03/05 02:27:52;;;;;;;34.25;20.60;;;6.50;99.90;;;;;;4998920;28;20259;-83
2021/03/05 02:30:41;;;;;;;33.88;21.35;;;6.50;99.90;;;;;;5015345;28;20203;-82
2021/03/05 02:33:14;;;;;;;34.80;19.60;;;6.60;99.90;;;;;;4999441;28;20216;-82
2021/03/05 02:35:43;;;;;;;35.20;20.10;;;6.60;99.90;;;;;;5020153;28;20306;-81
2021/03/05 02:38:11;;;;;;;35.33;18.55;;;6.60;99.90;;;;;;5019858;28;20223;-82
2021/03/05 02:40:40;;;;;;;26.50;16.02;;;6.60;99.90;;;;;;5024969;28;20203;-81
2021/03/05 02:43:10;;;;;;;38.00;19.25;;;6.70;99.90;;;;;;5030115;28;20270;-81
2021/03/05 02:45:40;;;;;;;26.70;15.38;;;6.70;99.90;;;;;;5029774;28;20235;-82
2021/03/05 02:48:11;;;;;;;32.50;19.13;;;6.50;99.90;;;;;;5007915;28;20211;-82
2021/03/05 02:50:41;;;;;;;30.20;15.27;;;6.50;99.90;;;;;;4999357;28;20298;-82
2021/03/05 02:53:11;;;;;;;36.65;20.70;;;6.50;99.90;;;;;;4999962;28;20258;-82
2021/03/05 02:55:39;;;;;;;36.42;19.98;;;6.40;99.90;;;;;;5017632;28;20282;-81
2021/03/05 02:58:07;;;;;;;29.15;17.15;;;6.40;99.90;;;;;;5027424;28;20325;-83
2021/03/05 03:00:34;;;;;;;21.60;10.88;;;6.30;99.90;;;;;;5024141;28;20286;-84
2021/03/05 03:03:03;;;;;;;31.10;19.10;;;6.10;99.90;;;;;;5025979;28;20224;-82
2021/03/05 03:05:31;;;;;;;31.70;17.65;;;6.20;99.90;;;;;;5028360;28;20220;-82
2021/03/05 03:07:58;;;;;;;31.27;17.48;;;6.20;99.90;;;;;;5026586;28;20271;-82
2021/03/05 03:10:27;;;;;;;32.53;19.30;;;6.20;99.90;;;;;;5024591;28;20208;-83
2021/03/05 03:12:55;;;;;;;31.05;17.30;;;6.10;99.90;;;;;;5028514;28;20203;-83
2021/03/05 03:15:26;;;;;;;31.60;18.00;;;6.10;99.90;;;;;;5016058;28;20261;-83
2021/03/05 03:17:54;;;;;;;33.30;18.55;;;6.30;99.90;;;;;;5017158;28;20215;-83
2021/03/05 03:20:22;;;;;;;32.08;19.30;;;6.20;99.90;;;;;;5026284;28;20207;-83
2021/03/05 03:22:49;;;;;;;29.33;18.10;;;6.40;99.90;;;;;;5024511;28;20261;-83
2021/03/05 03:25:17;;;;;;;27.85;16.38;;;6.20;99.90;;;;;;5026458;28;20351;-83
2021/03/05 03:27:44;;;;;;;32.08;20.58;;;6.50;99.90;;;;;;5018020;28;20243;-83
2021/03/05 03:30:13;;;;;;;36.70;20.58;;;6.20;99.90;;;;;;5014370;28;20823;-82
2021/03/05 03:32:39;;;;;;;26.60;16.92;;;6.40;99.90;;;;;;5017952;28;20200;-83
2021/03/05 03:35:08;;;;;;;28.77;16.30;;;6.30;99.90;;;;;;5016921;28;20254;-83
2021/03/05 03:37:35;;;;;;;28.48;16.27;;;6.20;99.90;;;;;;5017666;28;20683;-83
2021/03/05 03:40:04;;;;;;;28.25;17.27;;;6.30;99.90;;;;;;5037480;28;20649;-83
2021/03/05 03:42:31;;;;;;;30.60;18.35;;;6.50;99.90;;;;;;5032112;28;20223;-81
2021/03/05 03:44:57;;;;;;;30.75;18.88;;;6.40;99.90;;;;;;5018880;28;20251;-82
2021/03/05 03:47:24;;;;;;;28.17;16.48;;;6.40;99.90;;;;;;5018511;28;20216;-82
2021/03/05 03:49:56;;;;;;;29.83;17.27;;;6.60;99.90;;;;;;5021764;28;20670;-82
2021/03/05 03:52:27;;;;;;;27.92;17.80;;;6.40;99.90;;;;;;5019399;28;20204;-82
2021/03/05 03:54:55;;;;;;;28.05;16.50;;;6.40;99.90;;;;;;5019902;28;20204;-81
2021/03/05 03:57:24;;;;;;;27.40;16.60;;;6.30;99.90;;;;;;5019746;28;20263;-81
2021/03/05 03:59:52;;;;;;;30.27;18.38;;;6.50;99.90;;;;;;5017384;28;20200;-81
2021/03/05 04:02:21;;;;;;;23.70;16.50;;;6.60;99.90;;;;;;5027877;28;20206;-81
2021/03/05 04:04:50;;;;;;;24.45;16.70;;;6.50;99.90;;;;;;5036667;28;20266;-82
2021/03/05 04:07:19;;;;;;;23.40;15.38;;;6.60;99.90;;;;;;5036625;28;20227;-82
2021/03/05 04:09:46;;;;;;;23.00;15.90;;;6.50;99.90;;;;;;5034241;28;20206;-82
2021/03/05 04:12:13;;;;;;;21.77;14.98;;;6.30;99.90;;;;;;5035703;28;20227;-82
2021/03/05 04:14:41;;;;;;;21.17;14.95;;;6.40;99.90;;;;;;5023899;28;20296;-83
2021/03/05 04:17:07;;;;;;;20.58;12.90;;;6.60;99.90;;;;;;5022642;28;20289;-82
2021/03/05 04:19:34;;;;;;;19.17;12.55;;;6.40;99.90;;;;;;5021626;28;20212;-82
2021/03/05 04:22:01;;;;;;;19.13;12.65;;;6.60;99.90;;;;;;5021359;28;20215;-83
2021/03/05 04:24:27;;;;;;;20.42;13.25;;;6.30;99.90;;;;;;5021930;28;20238;-83
2021/03/05 04:26:53;;;;;;;20.33;12.88;;;6.30;99.90;;;;;;5022379;28;20319;-83
2021/03/05 04:29:20;;;;;;;20.98;14.30;;;6.40;99.90;;;;;;5009635;28;20216;-83
2021/03/05 04:31:47;;;;;;;19.58;12.90;;;6.00;99.90;;;;;;5002525;28;20591;-83
2021/03/05 04:34:13;;;;;;;19.08;11.52;;;6.10;99.90;;;;;;5001534;28;20204;-83
2021/03/05 04:36:39;;;;;;;18.85;13.95;;;5.90;99.90;;;;;;5001144;28;20237;-83
2021/03/05 04:39:06;;;;;;;22.10;12.90;;;6.10;99.90;;;;;;5011169;28;20219;-83
2021/03/05 04:41:32;;;;;;;17.52;12.60;;;5.90;99.90;;;;;;5026249;28;20260;-83
2021/03/05 04:44:00;;;;;;;21.25;12.80;;;5.60;99.90;;;;;;5018062;28;20236;-84
2021/03/05 04:46:26;;;;;;;20.85;13.25;;;6.00;99.90;;;;;;5019370;28;20300;-83
2021/03/05 04:48:54;;;;;;;21.80;14.60;;;5.90;99.90;;;;;;5028576;28;20254;-84
2021/03/05 04:51:20;;;;;;;21.67;13.20;;;6.10;99.90;;;;;;5024641;28;20204;-84
2021/03/05 04:53:47;;;;;;;19.70;12.43;;;5.80;99.90;;;;;;5018565;28;20199;-84
2021/03/05 04:56:13;;;;;;;20.25;12.85;;;6.00;99.90;;;;;;5023635;28;20330;-84
2021/03/05 04:58:40;;;;;;;23.13;15.00;;;6.10;99.90;;;;;;5020640;28;20314;-84
2021/03/05 05:01:06;;;;;;;11.23;6.72;;;5.90;99.90;;;;;;5027493;28;20207;-83
2021/03/05 05:03:32;;;;;;;21.30;13.00;;;5.80;99.90;;;;;;5040755;28;20756;-84
2021/03/05 05:06:00;;;;;;;19.70;11.40;;;6.00;99.90;;;;;;5039343;28;20230;-84
2021/03/05 05:08:26;;;;;;;19.48;10.70;;;5.90;99.90;;;;;;5030299;28;20299;-85
2021/03/05 05:10:53;;;;;;;20.25;11.90;;;5.80;99.90;;;;;;5018017;28;20702;-84
2021/03/05 05:13:19;;;;;;;18.55;12.23;;;5.70;99.90;;;;;;5014860;28;20261;-83
2021/03/05 05:15:45;;;;;;;18.48;10.63;;;5.80;99.90;;;;;;5014590;28;20228;-84
2021/03/05 05:18:12;;;;;;;17.92;9.52;;;5.70;99.90;;;;;;5017668;28;20208;-84
2021/03/05 05:20:38;;;;;;;19.25;12.20;;;5.60;99.90;;;;;;5026890;28;20210;-84
2021/03/05 05:23:05;;;;;;;11.40;6.47;;;5.70;99.90;;;;;;5034885;28;20242;-85
2021/03/05 05:25:32;;;;;;;20.38;11.80;;;5.60;99.90;;;;;;5021688;28;20224;-84
2021/03/05 05:27:59;;;;;;;18.23;11.68;;;5.60;99.90;;;;;;5022800;28;20264;-84
2021/03/05 05:30:25;;;;;;;14.23;9.15;;;5.50;99.90;;;;;;5025207;28;20200;-84
2021/03/05 05:32:51;;;;;;;18.35;10.35;;;5.60;99.90;;;;;;5021891;28;20292;-84
2021/03/05 05:35:18;;;;;;;14.93;8.75;;;5.60;99.90;;;;;;5020063;28;20216;-84
2021/03/05 05:37:44;;;;;;;16.23;8.82;;;5.70;99.90;;;;;;5019385;28;20250;-84
2021/03/05 05:40:13;;;;;;;13.02;6.00;;;5.40;99.90;;;;;;5019247;28;20220;-85
2021/03/05 05:42:39;;;;;;;20.17;12.25;;;5.40;99.90;;;;;;5020031;28;20227;-84
2021/03/05 05:45:07;;;;;;;18.63;11.82;;;5.30;99.90;;;;;;5021208;28;20246;-84
2021/03/05 05:47:37;;;;;;;18.48;12.82;;;5.30;99.90;;;;;;5022975;28;20267;-84
2021/03/05 05:50:05;;;;;;;19.85;12.30;;;5.60;99.90;;;;;;5027088;28;20196;-84
2021/03/05 05:52:33;;;;;;;21.13;12.27;;;5.70;99.90;;;;;;5032545;28;20208;-84
2021/03/05 05:55:01;;;;;;;21.17;11.00;;;5.70;99.90;;;;;;5033775;28;20211;-83
2021/03/05 05:57:29;;;;;;;19.40;11.20;;;5.80;99.90;;;;;;5035224;28;20202;-84
2021/03/05 05:59:58;;;;;;;17.52;8.00;;;5.80;99.90;;;;;;5034249;28;20212;-83
2021/03/05 06:02:24;;;;;;;22.33;11.48;;;6.00;99.90;;;;;;5021541;28;20207;-84
2021/03/05 06:04:53;;;;;;;12.63;6.40;;;5.60;99.90;;;;;;5020343;28;20211;-84
2021/03/05 06:07:20;;;;;;;20.58;10.95;;;5.50;99.90;;;;;;5026237;28;20219;-84
2021/03/05 06:09:49;;;;;;;18.30;11.35;;;5.60;99.90;;;;;;5031004;28;20235;-84
2021/03/05 06:12:16;;;;;;;21.13;11.25;;;5.40;99.90;;;;;;5019895;28;20934;-84
2021/03/05 06:14:44;;;;;;;16.40;9.38;;;5.60;99.90;;;;;;5022155;28;20228;-84
2021/03/05 06:17:11;;;;;;;20.10;10.82;;;5.60;99.90;;;;;;5023929;28;20235;-84
2021/03/05 06:19:38;;;;;;;21.27;11.55;;;5.70;99.90;;;;;;5024573;28;20208;-85
2021/03/05 06:22:18;;;;;;;16.65;10.45;;;5.60;99.90;;;;;;5020302;28;20208;-82
2021/03/05 06:24:48;;;;;;;24.83;12.68;;;5.60;99.90;;;;;;5018841;28;20227;-83
2021/03/05 06:27:16;;;;;;;21.70;12.27;;;5.80;99.90;;;;;;5019331;28;20215;-83
2021/03/05 06:29:45;;;;;;;19.38;12.07;;;5.90;99.90;;;;;;5018666;28;20301;-83
2021/03/05 06:32:13;;;;;;;14.27;7.82;;;5.90;99.90;;;;;;5022977;28;20273;-82
2021/03/05 06:34:47;;;;;;;19.20;11.63;;;5.80;99.90;;;;;;5024355;28;20207;-84
2021/03/05 06:37:15;;;;;;;19.60;10.48;;;5.70;99.90;;;;;;5023663;28;20218;-84
2021/03/05 06:39:42;;;;;;;20.80;11.20;;;5.60;99.90;;;;;;5023025;28;20203;-84
2021/03/05 06:42:11;;;;;;;19.10;11.00;;;5.50;99.90;;;;;;5022077;28;20208;-85
2021/03/05 06:44:39;;;;;;;18.08;9.65;;;5.80;99.90;;;;;;5007713;28;20770;-84
2021/03/05 06:47:12;;;;;;;21.40;12.65;;;5.50;99.90;;;;;;5016770;28;20220;-84
2021/03/05 06:49:39;;;;;;;17.27;9.15;;;5.40;99.90;;;;;;4997531;28;20215;-85
2021/03/05 06:52:06;;;;;;;21.85;12.10;;;5.70;99.90;;;;;;5014946;28;20208;-85
2021/03/05 06:54:34;;;;;;;23.95;11.10;;;5.70;99.90;;;;;;5016667;28;20592;-84
2021/03/05 06:57:01;;;;;;;18.85;11.65;;;5.50;99.90;;;;;;5015538;28;20224;-83
2021/03/05 06:59:35;;;;;;;20.02;11.60;;;5.50;99.90;;;;;;5007711;28;20270;-84
2021/03/05 07:02:02;;;;;;;23.65;10.73;;;5.40;99.90;;;;;;5017070;28;20283;-83
2021/03/05 07:04:30;;;;;;;21.02;9.13;;;5.80;99.90;;;;;;5022205;28;20228;-84
2021/03/05 07:06:57;;;;;;;16.52;9.18;;;5.30;99.90;;;;;;5018609;28;20311;-84
2021/03/05 07:09:26;;;;;;;11.13;5.95;;;5.30;99.90;;;;;;5017310;28;20291;-83
2021/03/05 07:11:54;;;;;;;19.48;10.50;;;5.50;99.90;;;;;;5012800;28;20273;-83
2021/03/05 07:14:26;;;;;;;19.98;11.32;;;5.30;99.90;;;;;;5018688;28;20196;-83
2021/03/05 07:16:54;;;;;;;20.42;11.20;;;5.30;99.90;;;;;;5019782;28;20231;-83
2021/03/05 07:19:22;;;;;;;10.00;4.78;;;5.70;99.90;;;;;;5019668;28;20203;-83
2021/03/05 07:21:51;;;;;;;21.65;12.55;;;5.40;99.90;;;;;;5019528;28;20203;-82
2021/03/05 07:24:19;;;;;;;20.60;10.77;;;5.50;99.90;;;;;;5023891;28;20223;-85
2021/03/05 07:27:00;;;;;;;20.20;10.48;;;5.50;99.90;;;;;;5023916;28;20836;-85
2021/03/05 07:29:28;;;;;;;19.05;9.43;;;5.50;99.90;;;;;;5022859;28;20208;-85
2021/03/05 07:32:03;;;;;;;24.40;13.63;;;5.70;99.90;;;;;;5021165;28;20279;-83
2021/03/05 07:34:32;;;;;;;14.75;7.35;;;5.70;99.90;;;;;;5005518;28;20235;-83
2021/03/05 07:37:01;;;;;;;17.73;7.88;;;5.90;99.90;;;;;;5017877;28;20309;-85
2021/03/05 07:39:31;;;;;;;19.98;10.90;;;5.60;99.90;;;;;;5032274;28;20231;-83
2021/03/05 07:41:58;;;;;;;20.13;11.27;;;5.90;99.90;;;;;;5033137;28;20207;-83
2021/03/05 07:44:26;;;;;;;16.58;8.50;;;5.60;99.90;;;;;;5032694;28;20505;-83
2021/03/05 07:46:52;;;;;;;19.33;9.90;;;5.60;99.90;;;;;;5017812;28;20225;-83
2021/03/05 07:49:26;;;;;;;21.35;11.73;;;5.60;99.90;;;;;;5014443;28;20219;-83
2021/03/05 07:51:55;;;;;;;19.27;10.93;;;5.60;99.90;;;;;;5025013;28;20223;-82
2021/03/05 07:54:47;;;;;;;21.77;12.90;;;5.70;99.90;;;;;;5025676;28;20214;-83
2021/03/05 07:57:49;;;;;;;18.10;10.65;;;6.00;99.90;;;;;;5009636;28;20237;-82
2021/03/05 08:00:41;;;;;;;16.83;9.60;;;5.80;99.90;;;;;;5012192;28;20315;-83
2021/03/05 08:03:08;;;;;;;19.83;11.55;;;6.20;99.90;;;;;;5022067;28;20322;-84
2021/03/05 08:05:39;;;;;;;24.05;9.85;;;6.00;99.90;;;;;;5021722;28;20733;-83
2021/03/05 08:08:17;;;;;;;23.15;12.68;;;5.90;99.90;;;;;;5022375;28;20259;-82
2021/03/05 08:10:47;;;;;;;20.70;11.55;;;5.70;99.90;;;;;;5022759;28;20207;-83
2021/03/05 08:13:44;;;;;;;18.83;10.00;;;6.00;99.90;;;;;;5030771;28;20230;-81
2021/03/05 08:16:37;;;;;;;21.55;10.93;;;5.70;99.90;;;;;;5029063;28;20252;-83
2021/03/05 08:19:49;;;;;;;21.05;11.48;;;5.60;99.90;;;;;;5029177;28;20204;-84
2021/03/05 08:22:17;;;;;;;19.63;11.13;;;5.70;99.90;;;;;;5031387;28;20208;-84
2021/03/05 08:24:44;;;;;;;22.02;9.30;;;5.90;99.90;;;;;;5011339;28;20228;-82
2021/03/05 08:27:14;;;;;;;20.13;12.10;;;5.80;99.90;;;;;;5031104;28;20234;-83
2021/03/05 08:30:00;;;;;;;14.90;8.82;;;6.10;99.90;;;;;;5030472;28;20212;-83
2021/03/05 08:33:00;;;;;;;19.65;9.55;;;6.00;99.90;;;;;;5029889;28;20214;-83
2021/03/05 08:35:49;;;;;;;18.45;10.55;;;5.70;99.90;;;;;;5021545;28;20224;-83
2021/03/05 08:38:19;;;;;;;20.60;11.73;;;6.00;99.90;;;;;;5025696;28;20289;-83
2021/03/05 08:41:04;;;;;;;20.27;11.00;;;6.00;99.90;;;;;;5032158;28;20200;-82
2021/03/05 08:43:33;;;;;;;19.80;11.30;;;5.90;99.90;;;;;;5031675;28;20222;-84
2021/03/05 08:46:03;;;;;;;15.38;7.88;;;6.50;99.90;;;;;;5026971;28;20260;-85
2021/03/05 08:48:38;;;;;;;16.90;7.70;;;6.30;99.90;;;;;;5010861;28;20268;-83
2021/03/05 08:51:07;;;;;;;19.83;9.85;;;6.00;99.90;;;;;;5006379;28;20196;-84
2021/03/05 08:53:38;;;;;;;18.98;10.43;;;6.10;99.90;;;;;;5022415;28;20291;-84
2021/03/05 08:56:05;;;;;;;16.67;8.40;;;6.00;99.90;;;;;;5027160;28;20228;-83
2021/03/05 08:58:33;;;;;;;20.38;11.90;;;6.10;99.90;;;;;;5025616;28;20654;-84
2021/03/05 09:01:00;;;;;;;19.08;7.75;;;5.90;99.90;;;;;;5007362;28;20243;-85
2021/03/05 09:03:26;;;;;;;14.77;8.68;;;5.80;99.90;;;;;;5021685;28;20219;-85
2021/03/05 09:05:53;;;;;;;6.43;3.22;;;5.70;99.90;;;;;;5033174;28;20228;-84
2021/03/05 09:08:23;;;;;;;16.08;7.38;;;5.70;99.90;;;;;;5029263;28;20196;-80
2021/03/05 09:10:51;;;;;;;18.52;10.77;;;5.50;99.90;;;;;;5021045;28;20724;-80
2021/03/05 09:13:19;;;;;;;19.17;12.40;;;5.50;99.90;;;;;;5014116;28;20648;-79
2021/03/05 09:15:48;;;;;;;17.52;9.75;;;5.60;99.90;;;;;;5025217;28;20263;-80
2021/03/05 09:18:17;;;;;;;17.35;8.65;;;5.60;99.90;;;;;;5021329;28;20208;-79
2021/03/05 09:20:46;;;;;;;20.63;11.25;;;5.80;99.90;;;;;;5024280;28;20742;-77
2021/03/05 09:23:29;;;;;;;16.52;8.98;;;5.80;99.90;;;;;;5028220;28;20228;-81
2021/03/05 09:25:56;;;;;;;21.85;11.10;;;5.70;99.90;;;;;;5032036;28;20270;-83
2021/03/05 09:28:24;;;;;;;13.27;6.95;;;6.00;99.90;;;;;;5034524;28;20203;-82
2021/03/05 09:30:54;;;;;;;17.08;8.40;;;6.00;99.90;;;;;;5028245;28;20231;-82
2021/03/05 09:33:27;;;;;;;15.85;9.02;;;5.80;99.90;;;;;;5015855;28;20204;-82
2021/03/05 09:36:04;;;;;;;17.10;9.25;;;5.70;99.90;;;;;;5024428;28;20243;-82
2021/03/05 09:38:30;;;;;;;17.45;9.32;;;5.70;99.90;;;;;;5030128;28;20203;-83
2021/03/05 09:41:13;;;;;;;18.55;9.20;;;5.90;99.90;;;;;;5028415;28;20626;-81
2021/03/05 09:43:39;;;;;;;19.23;8.52;;;6.10;99.90;;;;;;5024774;28;20291;-80
2021/03/05 09:46:21;;;;;;;19.88;10.35;;;6.30;99.90;;;;;;5025965;28;20287;-80
2021/03/05 09:48:48;;;;;;;10.20;5.03;;;5.90;99.90;;;;;;5023353;28;20218;-81
2021/03/05 09:51:15;;;;;;;18.25;10.82;;;6.10;99.90;;;;;;5027969;28;20318;-82
2021/03/05 09:53:51;;;;;;;15.90;8.10;;;6.00;99.90;;;;;;5027564;28;20228;-81
2021/03/05 09:56:19;;;;;;;21.63;10.02;;;6.10;99.90;;;;;;5009027;28;20288;-81
2021/03/05 09:58:56;;;;;;;18.60;9.60;;;6.30;99.90;;;;;;5014916;28;20215;-82
2021/03/05 10:01:24;;;;;;;16.48;8.85;;;6.30;99.90;;;;;;5027930;28;20199;-83
2021/03/05 10:03:58;;;;;;;19.60;10.25;;;6.30;99.90;;;;;;5019619;28;20220;-82
2021/03/05 10:06:25;;;;;;;18.75;10.35;;;6.50;99.90;;;;;;5013780;28;20223;-81
2021/03/05 10:09:02;;;;;;;19.67;9.80;;;6.50;99.90;;;;;;5007316;28;20207;-82
2021/03/05 10:11:35;;;;;;;17.27;9.18;;;6.30;99.90;;;;;;5025197;28;20212;-80
2021/03/05 10:14:03;;;;;;;17.35;9.48;;;6.60;99.90;;;;;;5026063;28;20224;-81
2021/03/05 10:16:32;;;;;;;19.52;10.95;;;6.60;99.90;;;;;;5026063;28;20231;-81
2021/03/05 10:19:05;;;;;;;16.90;8.38;;;6.90;99.90;;;;;;5020433;28;20204;-81
2021/03/05 10:21:33;;;;;;;21.20;10.60;;;6.60;99.90;;;;;;5007930;28;20212;-82
2021/03/05 10:24:04;;;;;;;20.25;10.02;;;6.70;99.90;;;;;;5008475;28;20351;-82
2021/03/05 10:26:31;;;;;;;16.30;9.68;;;6.80;99.90;;;;;;5004587;28;20244;-82
2021/03/05 10:29:00;;;;;;;15.50;7.60;;;6.90;99.90;;;;;;5005658;28;20207;-81
2021/03/05 10:31:45;;;;;;;21.80;10.10;;;7.00;99.90;;;;;;5011209;28;20211;-81
2021/03/05 10:34:26;;;;;;;29.23;10.30;;;6.90;99.90;;;;;;5022128;28;20284;-82
2021/03/05 10:36:55;;;;;;;14.85;8.40;;;7.20;99.90;;;;;;5022658;28;20518;-81
2021/03/05 10:39:21;;;;;;;16.92;8.93;;;7.10;99.90;;;;;;5015529;28;20225;-81
2021/03/05 10:41:52;;;;;;;14.43;8.93;;;7.00;99.90;;;;;;5020485;28;20200;-81
2021/03/05 10:44:19;;;;;;;17.30;7.95;;;6.70;99.90;;;;;;5011694;28;20243;-80
2021/03/05 10:46:46;;;;;;;14.30;8.80;;;6.50;99.90;;;;;;5010285;28;20312;-80
2021/03/05 10:49:13;;;;;;;8.48;4.38;;;6.60;99.90;;;;;;5024054;28;20218;-83
2021/03/05 10:51:39;;;;;;;16.55;9.07;;;6.40;99.90;;;;;;5022785;28;20200;-83
2021/03/05 10:54:05;;;;;;;14.00;7.47;;;6.50;99.90;;;;;;5016136;28;20244;-82
2021/03/05 10:56:33;;;;;;;15.40;9.32;;;6.80;99.90;;;;;;5019617;28;20235;-82
2021/03/05 10:59:00;;;;;;;15.45;9.88;;;6.70;99.90;;;;;;5024837;28;20276;-82
2021/03/05 11:01:27;;;;;;;15.65;8.70;;;6.90;99.90;;;;;;5012107;28;20201;-82
2021/03/05 11:03:54;;;;;;;17.98;9.48;;;6.80;99.90;;;;;;5024392;28;20231;-81
2021/03/05 11:06:20;;;;;;;17.38;9.65;;;6.80;99.90;;;;;;5017291;28;20227;-82
2021/03/05 11:08:47;;;;;;;13.90;7.38;;;6.70;99.90;;;;;;5017501;28;20208;-79
2021/03/05 11:11:13;;;;;;;11.15;6.72;;;7.20;99.90;;;;;;5018481;28;20212;-84
2021/03/05 11:13:39;;;;;;;15.73;9.20;;;6.80;99.90;;;;;;5021877;28;20204;-83
2021/03/05 11:16:06;;;;;;;16.98;9.30;;;6.80;99.90;;;;;;5019102;28;20673;-80
2021/03/05 11:18:33;;;;;;;17.08;10.43;;;6.90;99.90;;;;;;5021730;28;20222;-79
2021/03/05 11:21:00;;;;;;;15.90;9.23;;;7.00;99.90;;;;;;5014222;28;20211;-81
2021/03/05 11:23:26;;;;;;;16.67;10.02;;;7.00;99.90;;;;;;5003987;28;20328;-80
2021/03/05 11:25:53;;;;;;;16.90;9.27;;;7.20;99.90;;;;;;5018882;28;20298;-79
2021/03/05 11:28:19;;;;;;;14.50;7.40;;;7.20;99.90;;;;;;5012675;28;20276;-81
2021/03/05 11:30:46;;;;;;;19.80;9.60;;;6.90;99.90;;;;;;5002414;28;20231;-82
2021/03/05 11:33:13;;;;;;;17.60;8.93;;;6.80;99.90;;;;;;5000355;28;20209;-83
2021/03/05 11:35:39;;;;;;;17.30;8.90;;;6.90;99.90;;;;;;5004882;28;20284;-82
2021/03/05 11:38:06;;;;;;;15.50;8.73;;;6.70;99.90;;;;;;5019360;28;20196;-83
2021/03/05 11:40:33;;;;;;;16.00;7.22;;;6.40;99.90;;;;;;5019944;28;20236;-80
2021/03/05 11:42:59;;;;;;;16.95;8.90;;;6.30;99.90;;;;;;5041716;28;20268;-84
2021/03/05 11:45:26;;;;;;;16.70;9.40;;;6.30;99.90;;;;;;5031255;28;20303;-82
2021/03/05 11:47:52;;;;;;;11.50;5.03;;;6.50;99.90;;;;;;5011068;28;20201;-81
2021/03/05 11:50:19;;;;;;;16.20;9.10;;;6.50;99.90;;;;;;5000537;28;20285;-83
2021/03/05 11:52:45;;;;;;;15.68;9.15;;;6.60;99.90;;;;;;5011951;28;20208;-82
2021/03/05 11:55:13;;;;;;;17.02;10.05;;;6.80;99.90;;;;;;5018754;28;20232;-83
2021/03/05 11:57:40;;;;;;;13.07;8.63;;;6.70;99.90;;;;;;5020117;28;20204;-82
2021/03/05 12:00:08;;;;;;;19.25;9.85;;;6.30;99.90;;;;;;5022915;28;20215;-85
2021/03/05 12:02:34;;;;;;;22.13;10.70;;;6.40;99.90;;;;;;5021947;28;20274;-80
2021/03/05 12:05:01;;;;;;;17.45;9.00;;;6.60;99.90;;;;;;5019203;28;20239;-80
2021/03/05 12:07:27;;;;;;;17.02;9.93;;;6.50;99.90;;;;;;5014088;28;20199;-83
2021/03/05 12:09:54;;;;;;;16.48;10.45;;;6.40;99.90;;;;;;5014923;28;20205;-85
2021/03/05 12:12:21;;;;;;;12.95;8.20;;;6.70;99.90;;;;;;5002553;28;20648;-86
2021/03/05 12:14:48;;;;;;;8.10;4.90;;;6.80;99.90;;;;;;5015531;28;20207;-83
2021/03/05 12:17:14;;;;;;;18.73;10.77;;;6.80;99.90;;;;;;5040129;28;20212;-86
2021/03/05 12:19:41;;;;;;;17.45;9.55;;;6.70;99.90;;;;;;5031949;28;20262;-85
2021/03/05 12:22:08;;;;;;;15.32;9.00;;;6.80;99.90;;;;;;5021898;28;20200;-86
2021/03/05 12:24:34;;;;;;;17.63;11.15;;;6.80;99.90;;;;;;5012990;28;20291;-86
2021/03/05 12:27:02;;;;;;;16.90;9.10;;;6.90;99.90;;;;;;5009368;28;20224;-82
2021/03/05 12:29:29;;;;;;;16.35;9.73;;;7.20;99.90;;;;;;5020836;28;20208;-82
2021/03/05 12:31:56;;;;;;;17.50;9.95;;;7.30;99.90;;;;;;5025703;28;20697;-80
2021/03/05 12:34:23;;;;;;;16.58;9.60;;;7.20;99.90;;;;;;5032872;28;20216;-78
2021/03/05 12:36:49;;;;;;;19.23;8.60;;;7.00;99.90;;;;;;5024992;28;20347;-80
2021/03/05 12:39:15;;;;;;;15.07;9.25;;;7.20;99.90;;;;;;5029897;28;20674;-81
2021/03/05 12:41:42;;;;;;;17.40;9.90;;;7.20;99.90;;;;;;5026958;28;20304;-80
2021/03/05 12:44:09;;;;;;;15.43;7.45;;;7.30;99.90;;;;;;5021826;28;20223;-80
2021/03/05 12:46:36;;;;;;;17.65;8.65;;;7.20;99.90;;;;;;5017861;28;20240;-80
2021/03/05 12:49:03;;;;;;;15.50;8.85;;;7.00;99.90;;;;;;5007499;28;20207;-80
2021/03/05 12:51:29;;;;;;;16.50;9.05;;;6.80;99.90;;;;;;5017291;28;20207;-81